sensor_id;sensor_type;location;lat;lon;timestamp;P1;durP1;ratioP1;P2;durP2;ratioP2
21754;SDS011;11039;50.028;19.938;2023-03-30T00:02:26;9.32;;;6.20;;
21754;SDS011;11039;50.028;19.938;2023-03-30T00:04:55;7.90;;;5.85;;
21754;SDS011;11039;50.028;19.938;2023-03-30T00:07:27;8.52;;;5.85;;
21754;SDS011;11039;50.028;19.938;2023-03-30T00:09:54;7.53;;;5.60;;
21754;SDS011;11039;50.028;19.938;2023-03-30T00:12:20;8.43;;;6.05;;
21754;SDS011;11039;50.028;19.938;2023-03-30T00:14:46;8.63;;;5.60;;
21754;SDS011;11039;50.028;19.938;2023-03-30T00:17:13;7.63;;;5.32;;
21754;SDS011;11039;50.028;19.938;2023-03-30T00:19:39;8.20;;;5.55;;
21754;SDS011;11039;50.028;19.938;2023-03-30T00:22:05;8.70;;;5.85;;
21754;SDS011;11039;50.028;19.938;2023-03-30T00:24:32;8.82;;;5.75;;
21754;SDS011;11039;50.028;19.938;2023-03-30T00:26:58;7.35;;;5.22;;
21754;SDS011;11039;50.028;19.938;2023-03-30T00:29:24;6.65;;;5.05;;
21754;SDS011;11039;50.028;19.938;2023-03-30T00:31:51;8.77;;;6.00;;
21754;SDS011;11039;50.028;19.938;2023-03-30T00:34:17;7.10;;;5.43;;
21754;SDS011;11039;50.028;19.938;2023-03-30T00:36:43;7.07;;;5.10;;
21754;SDS011;11039;50.028;19.938;2023-03-30T00:39:10;8.20;;;5.47;;
21754;SDS011;11039;50.028;19.938;2023-03-30T00:41:37;9.93;;;5.60;;
21754;SDS011;11039;50.028;19.938;2023-03-30T00:46:48;7.63;;;5.15;;
21754;SDS011;11039;50.028;19.938;2023-03-30T00:49:14;7.00;;;5.07;;
21754;SDS011;11039;50.028;19.938;2023-03-30T00:51:40;7.13;;;4.95;;
21754;SDS011;11039;50.028;19.938;2023-03-30T00:54:11;8.18;;;5.22;;
21754;SDS011;11039;50.028;19.938;2023-03-30T00:56:39;7.22;;;5.10;;
21754;SDS011;11039;50.028;19.938;2023-03-30T00:59:05;7.43;;;5.63;;
21754;SDS011;11039;50.028;19.938;2023-03-30T01:01:33;7.80;;;5.25;;
21754;SDS011;11039;50.028;19.938;2023-03-30T01:04:02;6.63;;;5.20;;
21754;SDS011;11039;50.028;19.938;2023-03-30T01:06:29;7.15;;;5.18;;
21754;SDS011;11039;50.028;19.938;2023-03-30T01:08:56;7.00;;;5.28;;
21754;SDS011;11039;50.028;19.938;2023-03-30T01:11:23;7.22;;;4.97;;
21754;SDS011;11039;50.028;19.938;2023-03-30T01:13:53;9.00;;;5.00;;
21754;SDS011;11039;50.028;19.938;2023-03-30T01:29:36;6.88;;;5.00;;
21754;SDS011;11039;50.028;19.938;2023-03-30T01:32:10;5.55;;;4.18;;
21754;SDS011;11039;50.028;19.938;2023-03-30T01:34:44;6.88;;;5.00;;
21754;SDS011;11039;50.028;19.938;2023-03-30T01:40:21;6.10;;;4.18;;
21754;SDS011;11039;50.028;19.938;2023-03-30T01:42:55;6.22;;;4.40;;
21754;SDS011;11039;50.028;19.938;2023-03-30T01:50:34;7.10;;;4.72;;
21754;SDS011;11039;50.028;19.938;2023-03-30T01:55:35;6.07;;;4.28;;
21754;SDS011;11039;50.028;19.938;2023-03-30T02:00:29;6.20;;;4.38;;
21754;SDS011;11039;50.028;19.938;2023-03-30T02:05:22;6.97;;;4.45;;
21754;SDS011;11039;50.028;19.938;2023-03-30T02:07:50;6.80;;;4.68;;
21754;SDS011;11039;50.028;19.938;2023-03-30T02:10:18;6.03;;;4.55;;
21754;SDS011;11039;50.028;19.938;2023-03-30T02:12:46;5.47;;;4.43;;
21754;SDS011;11039;50.028;19.938;2023-03-30T02:15:12;6.85;;;4.53;;
21754;SDS011;11039;50.028;19.938;2023-03-30T02:17:40;6.40;;;4.40;;
21754;SDS011;11039;50.028;19.938;2023-03-30T02:20:09;6.28;;;4.28;;
21754;SDS011;11039;50.028;19.938;2023-03-30T02:22:36;7.13;;;4.20;;
21754;SDS011;11039;50.028;19.938;2023-03-30T02:25:03;6.68;;;4.38;;
21754;SDS011;11039;50.028;19.938;2023-03-30T02:27:30;6.00;;;4.07;;
21754;SDS011;11039;50.028;19.938;2023-03-30T02:29:57;6.28;;;4.10;;
21754;SDS011;11039;50.028;19.938;2023-03-30T02:32:25;6.30;;;4.07;;
21754;SDS011;11039;50.028;19.938;2023-03-30T02:37:31;7.20;;;3.97;;
21754;SDS011;11039;50.028;19.938;2023-03-30T02:40:23;6.93;;;4.25;;
21754;SDS011;11039;50.028;19.938;2023-03-30T02:45:22;5.82;;;4.13;;
21754;SDS011;11039;50.028;19.938;2023-03-30T02:50:24;5.38;;;3.75;;
21754;SDS011;11039;50.028;19.938;2023-03-30T02:58:16;6.80;;;4.00;;
21754;SDS011;11039;50.028;19.938;2023-03-30T03:00:48;6.90;;;3.50;;
21754;SDS011;11039;50.028;19.938;2023-03-30T03:03:17;5.75;;;3.95;;
21754;SDS011;11039;50.028;19.938;2023-03-30T03:05:45;5.15;;;3.58;;
21754;SDS011;11039;50.028;19.938;2023-03-30T03:08:14;5.85;;;3.78;;
21754;SDS011;11039;50.028;19.938;2023-03-30T03:10:42;5.22;;;3.88;;
21754;SDS011;11039;50.028;19.938;2023-03-30T03:13:09;6.53;;;3.95;;
21754;SDS011;11039;50.028;19.938;2023-03-30T03:15:35;6.65;;;3.90;;
21754;SDS011;11039;50.028;19.938;2023-03-30T03:18:02;7.30;;;4.47;;
21754;SDS011;11039;50.028;19.938;2023-03-30T03:20:28;5.90;;;3.80;;
21754;SDS011;11039;50.028;19.938;2023-03-30T03:22:54;5.15;;;3.55;;
21754;SDS011;11039;50.028;19.938;2023-03-30T03:25:20;6.05;;;3.53;;
21754;SDS011;11039;50.028;19.938;2023-03-30T03:27:46;5.85;;;3.65;;
21754;SDS011;11039;50.028;19.938;2023-03-30T03:30:12;6.70;;;3.85;;
21754;SDS011;11039;50.028;19.938;2023-03-30T03:32:38;6.25;;;3.78;;
21754;SDS011;11039;50.028;19.938;2023-03-30T03:35:05;5.53;;;3.35;;
21754;SDS011;11039;50.028;19.938;2023-03-30T03:37:31;5.07;;;3.60;;
21754;SDS011;11039;50.028;19.938;2023-03-30T03:39:57;5.40;;;3.67;;
21754;SDS011;11039;50.028;19.938;2023-03-30T03:42:23;6.85;;;3.45;;
21754;SDS011;11039;50.028;19.938;2023-03-30T03:44:49;5.65;;;3.60;;
21754;SDS011;11039;50.028;19.938;2023-03-30T03:47:15;6.35;;;4.18;;
21754;SDS011;11039;50.028;19.938;2023-03-30T03:49:42;6.25;;;3.92;;
21754;SDS011;11039;50.028;19.938;2023-03-30T03:52:08;5.90;;;3.90;;
21754;SDS011;11039;50.028;19.938;2023-03-30T03:54:34;5.28;;;3.70;;
21754;SDS011;11039;50.028;19.938;2023-03-30T03:57:00;6.50;;;3.63;;
21754;SDS011;11039;50.028;19.938;2023-03-30T03:59:27;5.35;;;3.75;;
21754;SDS011;11039;50.028;19.938;2023-03-30T04:01:53;5.18;;;3.55;;
21754;SDS011;11039;50.028;19.938;2023-03-30T04:04:19;5.57;;;3.70;;
21754;SDS011;11039;50.028;19.938;2023-03-30T04:06:45;4.57;;;3.40;;
21754;SDS011;11039;50.028;19.938;2023-03-30T04:09:12;6.05;;;3.35;;
21754;SDS011;11039;50.028;19.938;2023-03-30T04:11:38;5.15;;;3.35;;
21754;SDS011;11039;50.028;19.938;2023-03-30T04:14:04;4.80;;;3.33;;
21754;SDS011;11039;50.028;19.938;2023-03-30T04:16:30;4.60;;;3.60;;
21754;SDS011;11039;50.028;19.938;2023-03-30T04:18:56;6.10;;;3.45;;
21754;SDS011;11039;50.028;19.938;2023-03-30T04:21:24;6.03;;;3.63;;
21754;SDS011;11039;50.028;19.938;2023-03-30T04:23:53;4.57;;;3.22;;
21754;SDS011;11039;50.028;19.938;2023-03-30T04:26:19;5.07;;;3.13;;
21754;SDS011;11039;50.028;19.938;2023-03-30T04:28:45;4.72;;;3.13;;
21754;SDS011;11039;50.028;19.938;2023-03-30T04:31:11;4.53;;;3.25;;
21754;SDS011;11039;50.028;19.938;2023-03-30T04:33:38;5.85;;;3.20;;
21754;SDS011;11039;50.028;19.938;2023-03-30T04:36:14;4.63;;;2.97;;
21754;SDS011;11039;50.028;19.938;2023-03-30T04:38:45;4.85;;;3.17;;
21754;SDS011;11039;50.028;19.938;2023-03-30T04:41:28;5.32;;;3.30;;
21754;SDS011;11039;50.028;19.938;2023-03-30T04:43:58;4.82;;;3.35;;
21754;SDS011;11039;50.028;19.938;2023-03-30T04:46:24;4.45;;;3.28;;
21754;SDS011;11039;50.028;19.938;2023-03-30T04:48:51;4.97;;;3.08;;
21754;SDS011;11039;50.028;19.938;2023-03-30T04:51:17;4.60;;;2.90;;
21754;SDS011;11039;50.028;19.938;2023-03-30T04:53:43;4.30;;;2.95;;
21754;SDS011;11039;50.028;19.938;2023-03-30T04:56:09;6.65;;;3.20;;
21754;SDS011;11039;50.028;19.938;2023-03-30T04:58:35;4.40;;;3.05;;
21754;SDS011;11039;50.028;19.938;2023-03-30T05:01:01;4.57;;;2.92;;
21754;SDS011;11039;50.028;19.938;2023-03-30T05:03:28;5.22;;;3.10;;
21754;SDS011;11039;50.028;19.938;2023-03-30T05:05:55;4.47;;;2.80;;
21754;SDS011;11039;50.028;19.938;2023-03-30T05:08:21;4.63;;;2.90;;
21754;SDS011;11039;50.028;19.938;2023-03-30T05:10:48;3.83;;;2.72;;
21754;SDS011;11039;50.028;19.938;2023-03-30T05:13:14;4.72;;;2.90;;
21754;SDS011;11039;50.028;19.938;2023-03-30T05:15:40;4.18;;;3.00;;
21754;SDS011;11039;50.028;19.938;2023-03-30T05:18:06;5.43;;;3.10;;
21754;SDS011;11039;50.028;19.938;2023-03-30T05:20:32;6.40;;;3.30;;
21754;SDS011;11039;50.028;19.938;2023-03-30T05:22:58;5.03;;;3.10;;
21754;SDS011;11039;50.028;19.938;2023-03-30T05:25:24;6.35;;;3.10;;
21754;SDS011;11039;50.028;19.938;2023-03-30T05:27:51;5.47;;;2.72;;
21754;SDS011;11039;50.028;19.938;2023-03-30T05:30:17;5.65;;;2.90;;
21754;SDS011;11039;50.028;19.938;2023-03-30T05:32:43;4.68;;;2.85;;
21754;SDS011;11039;50.028;19.938;2023-03-30T05:35:09;4.63;;;3.08;;
21754;SDS011;11039;50.028;19.938;2023-03-30T05:37:36;4.82;;;3.08;;
21754;SDS011;11039;50.028;19.938;2023-03-30T05:40:02;5.00;;;2.72;;
21754;SDS011;11039;50.028;19.938;2023-03-30T05:42:33;6.93;;;2.90;;
21754;SDS011;11039;50.028;19.938;2023-03-30T05:44:59;6.07;;;2.92;;
21754;SDS011;11039;50.028;19.938;2023-03-30T05:47:25;4.28;;;2.88;;
21754;SDS011;11039;50.028;19.938;2023-03-30T05:49:52;6.75;;;3.08;;
21754;SDS011;11039;50.028;19.938;2023-03-30T05:52:18;6.45;;;3.42;;
21754;SDS011;11039;50.028;19.938;2023-03-30T05:54:45;6.38;;;3.65;;
21754;SDS011;11039;50.028;19.938;2023-03-30T05:57:11;5.95;;;3.45;;
21754;SDS011;11039;50.028;19.938;2023-03-30T05:59:38;5.65;;;3.42;;
21754;SDS011;11039;50.028;19.938;2023-03-30T06:02:04;6.57;;;3.42;;
21754;SDS011;11039;50.028;19.938;2023-03-30T06:04:31;7.82;;;3.50;;
21754;SDS011;11039;50.028;19.938;2023-03-30T06:06:57;6.78;;;3.60;;
21754;SDS011;11039;50.028;19.938;2023-03-30T06:09:23;6.20;;;3.35;;
21754;SDS011;11039;50.028;19.938;2023-03-30T06:11:50;4.90;;;3.17;;
21754;SDS011;11039;50.028;19.938;2023-03-30T06:14:17;5.80;;;3.50;;
21754;SDS011;11039;50.028;19.938;2023-03-30T06:16:43;5.88;;;3.20;;
21754;SDS011;11039;50.028;19.938;2023-03-30T06:19:09;6.78;;;3.60;;
21754;SDS011;11039;50.028;19.938;2023-03-30T06:21:36;7.00;;;3.30;;
21754;SDS011;11039;50.028;19.938;2023-03-30T06:24:02;7.32;;;3.45;;
21754;SDS011;11039;50.028;19.938;2023-03-30T06:26:28;9.43;;;3.80;;
21754;SDS011;11039;50.028;19.938;2023-03-30T06:28:54;6.47;;;3.38;;
21754;SDS011;11039;50.028;19.938;2023-03-30T06:31:20;6.28;;;3.45;;
21754;SDS011;11039;50.028;19.938;2023-03-30T06:33:46;5.75;;;3.22;;
21754;SDS011;11039;50.028;19.938;2023-03-30T06:36:14;5.85;;;3.22;;
21754;SDS011;11039;50.028;19.938;2023-03-30T06:38:40;9.50;;;3.70;;
21754;SDS011;11039;50.028;19.938;2023-03-30T06:41:09;5.45;;;3.17;;
21754;SDS011;11039;50.028;19.938;2023-03-30T06:43:37;10.00;;;4.07;;
21754;SDS011;11039;50.028;19.938;2023-03-30T06:46:03;6.72;;;3.63;;
21754;SDS011;11039;50.028;19.938;2023-03-30T06:48:31;9.43;;;3.70;;
21754;SDS011;11039;50.028;19.938;2023-03-30T06:50:57;8.38;;;3.40;;
21754;SDS011;11039;50.028;19.938;2023-03-30T06:53:23;7.78;;;3.60;;
21754;SDS011;11039;50.028;19.938;2023-03-30T06:55:50;8.55;;;3.63;;
21754;SDS011;11039;50.028;19.938;2023-03-30T06:58:16;7.53;;;3.70;;
21754;SDS011;11039;50.028;19.938;2023-03-30T07:00:42;7.47;;;3.80;;
21754;SDS011;11039;50.028;19.938;2023-03-30T07:03:08;9.98;;;3.75;;
21754;SDS011;11039;50.028;19.938;2023-03-30T07:05:34;8.55;;;3.80;;
21754;SDS011;11039;50.028;19.938;2023-03-30T07:08:00;9.27;;;3.45;;
21754;SDS011;11039;50.028;19.938;2023-03-30T07:10:28;7.18;;;3.35;;
21754;SDS011;11039;50.028;19.938;2023-03-30T07:12:54;6.18;;;3.40;;
21754;SDS011;11039;50.028;19.938;2023-03-30T07:15:20;6.63;;;3.33;;
21754;SDS011;11039;50.028;19.938;2023-03-30T07:17:46;6.00;;;3.38;;
21754;SDS011;11039;50.028;19.938;2023-03-30T07:20:12;6.65;;;3.20;;
21754;SDS011;11039;50.028;19.938;2023-03-30T07:22:41;6.72;;;3.28;;
21754;SDS011;11039;50.028;19.938;2023-03-30T07:25:08;6.00;;;3.50;;
21754;SDS011;11039;50.028;19.938;2023-03-30T07:27:35;6.75;;;3.50;;
21754;SDS011;11039;50.028;19.938;2023-03-30T07:30:03;6.75;;;3.42;;
21754;SDS011;11039;50.028;19.938;2023-03-30T07:32:29;7.88;;;3.20;;
21754;SDS011;11039;50.028;19.938;2023-03-30T07:34:55;6.00;;;3.08;;
21754;SDS011;11039;50.028;19.938;2023-03-30T07:37:22;6.00;;;3.55;;
21754;SDS011;11039;50.028;19.938;2023-03-30T07:39:48;4.82;;;3.08;;
21754;SDS011;11039;50.028;19.938;2023-03-30T07:42:14;6.47;;;3.72;;
21754;SDS011;11039;50.028;19.938;2023-03-30T07:44:41;5.50;;;3.25;;
21754;SDS011;11039;50.028;19.938;2023-03-30T07:47:07;8.20;;;3.58;;
21754;SDS011;11039;50.028;19.938;2023-03-30T07:49:33;5.13;;;3.17;;
21754;SDS011;11039;50.028;19.938;2023-03-30T07:51:59;4.50;;;3.00;;
21754;SDS011;11039;50.028;19.938;2023-03-30T07:54:26;5.32;;;3.03;;
21754;SDS011;11039;50.028;19.938;2023-03-30T07:56:52;4.80;;;3.13;;
21754;SDS011;11039;50.028;19.938;2023-03-30T07:59:19;5.13;;;3.08;;
21754;SDS011;11039;50.028;19.938;2023-03-30T08:01:45;6.72;;;3.58;;
21754;SDS011;11039;50.028;19.938;2023-03-30T08:04:14;5.00;;;3.22;;
21754;SDS011;11039;50.028;19.938;2023-03-30T08:06:40;4.80;;;3.08;;
21754;SDS011;11039;50.028;19.938;2023-03-30T08:09:06;8.13;;;3.40;;
21754;SDS011;11039;50.028;19.938;2023-03-30T08:11:33;5.07;;;3.28;;
21754;SDS011;11039;50.028;19.938;2023-03-30T08:14:02;5.60;;;3.40;;
21754;SDS011;11039;50.028;19.938;2023-03-30T08:16:29;4.60;;;3.30;;
21754;SDS011;11039;50.028;19.938;2023-03-30T08:18:55;4.57;;;3.13;;
21754;SDS011;11039;50.028;19.938;2023-03-30T08:21:21;4.63;;;3.20;;
21754;SDS011;11039;50.028;19.938;2023-03-30T08:23:49;5.95;;;3.40;;
21754;SDS011;11039;50.028;19.938;2023-03-30T08:26:16;5.82;;;3.22;;
21754;SDS011;11039;50.028;19.938;2023-03-30T08:28:42;4.50;;;2.92;;
21754;SDS011;11039;50.028;19.938;2023-03-30T08:31:08;6.00;;;3.13;;
21754;SDS011;11039;50.028;19.938;2023-03-30T08:33:37;4.47;;;3.08;;
21754;SDS011;11039;50.028;19.938;2023-03-30T08:36:03;5.45;;;3.28;;
21754;SDS011;11039;50.028;19.938;2023-03-30T08:38:30;5.55;;;3.53;;
21754;SDS011;11039;50.028;19.938;2023-03-30T08:40:57;5.43;;;3.30;;
21754;SDS011;11039;50.028;19.938;2023-03-30T08:44:08;5.55;;;3.60;;
21754;SDS011;11039;50.028;19.938;2023-03-30T08:46:11;3.97;;;3.20;;
21754;SDS011;11039;50.028;19.938;2023-03-30T08:48:38;6.63;;;3.17;;
21754;SDS011;11039;50.028;19.938;2023-03-30T08:53:54;6.18;;;3.60;;
21754;SDS011;11039;50.028;19.938;2023-03-30T08:56:22;6.78;;;3.92;;
21754;SDS011;11039;50.028;19.938;2023-03-30T09:01:19;8.25;;;2.95;;
21754;SDS011;11039;50.028;19.938;2023-03-30T09:09:12;5.57;;;3.13;;
21754;SDS011;11039;50.028;19.938;2023-03-30T09:11:41;6.45;;;3.33;;
21754;SDS011;11039;50.028;19.938;2023-03-30T09:14:09;3.97;;;2.95;;
21754;SDS011;11039;50.028;19.938;2023-03-30T09:16:39;7.25;;;2.90;;
21754;SDS011;11039;50.028;19.938;2023-03-30T09:19:12;4.80;;;3.15;;
21754;SDS011;11039;50.028;19.938;2023-03-30T09:21:39;8.23;;;3.53;;
21754;SDS011;11039;50.028;19.938;2023-03-30T09:24:10;4.55;;;3.08;;
21754;SDS011;11039;50.028;19.938;2023-03-30T09:26:40;6.72;;;3.42;;
21754;SDS011;11039;50.028;19.938;2023-03-30T09:29:13;4.20;;;3.10;;
21754;SDS011;11039;50.028;19.938;2023-03-30T09:31:43;6.07;;;3.28;;
21754;SDS011;11039;50.028;19.938;2023-03-30T09:37:13;8.18;;;3.15;;
21754;SDS011;11039;50.028;19.938;2023-03-30T09:39:46;8.50;;;3.45;;
21754;SDS011;11039;50.028;19.938;2023-03-30T09:42:23;9.05;;;3.50;;
21754;SDS011;11039;50.028;19.938;2023-03-30T09:44:55;6.05;;;3.15;;
21754;SDS011;11039;50.028;19.938;2023-03-30T09:47:24;5.93;;;3.13;;
21754;SDS011;11039;50.028;19.938;2023-03-30T09:49:57;5.40;;;3.00;;
21754;SDS011;11039;50.028;19.938;2023-03-30T09:52:25;5.18;;;3.38;;
21754;SDS011;11039;50.028;19.938;2023-03-30T09:54:51;6.97;;;3.28;;
21754;SDS011;11039;50.028;19.938;2023-03-30T09:57:30;4.38;;;2.92;;
21754;SDS011;11039;50.028;19.938;2023-03-30T09:59:57;4.63;;;2.70;;
21754;SDS011;11039;50.028;19.938;2023-03-30T10:02:25;5.95;;;2.88;;
21754;SDS011;11039;50.028;19.938;2023-03-30T10:07:24;7.07;;;2.95;;
21754;SDS011;11039;50.028;19.938;2023-03-30T10:09:51;6.72;;;3.03;;
21754;SDS011;11039;50.028;19.938;2023-03-30T10:12:17;6.45;;;3.08;;
21754;SDS011;11039;50.028;19.938;2023-03-30T10:14:43;7.05;;;3.40;;
21754;SDS011;11039;50.028;19.938;2023-03-30T10:17:20;4.75;;;2.65;;
21754;SDS011;11039;50.028;19.938;2023-03-30T10:19:47;4.55;;;2.45;;
21754;SDS011;11039;50.028;19.938;2023-03-30T10:22:14;4.90;;;2.83;;
21754;SDS011;11039;50.028;19.938;2023-03-30T10:24:47;4.97;;;2.83;;
21754;SDS011;11039;50.028;19.938;2023-03-30T10:27:14;6.05;;;2.90;;
21754;SDS011;11039;50.028;19.938;2023-03-30T10:29:44;5.55;;;2.65;;
21754;SDS011;11039;50.028;19.938;2023-03-30T10:32:28;5.57;;;3.00;;
21754;SDS011;11039;50.028;19.938;2023-03-30T10:34:55;4.57;;;3.10;;
21754;SDS011;11039;50.028;19.938;2023-03-30T10:37:29;6.57;;;2.90;;
21754;SDS011;11039;50.028;19.938;2023-03-30T10:39:57;6.22;;;3.03;;
21754;SDS011;11039;50.028;19.938;2023-03-30T10:42:25;5.22;;;3.05;;
21754;SDS011;11039;50.028;19.938;2023-03-30T10:44:52;5.53;;;2.80;;
21754;SDS011;11039;50.028;19.938;2023-03-30T10:47:25;5.25;;;2.80;;
21754;SDS011;11039;50.028;19.938;2023-03-30T10:58:13;3.65;;;2.60;;
21754;SDS011;11039;50.028;19.938;2023-03-30T11:03:28;4.40;;;2.58;;
21754;SDS011;11039;50.028;19.938;2023-03-30T11:06:07;3.65;;;2.67;;
21754;SDS011;11039;50.028;19.938;2023-03-30T11:08:37;3.80;;;2.50;;
21754;SDS011;11039;50.028;19.938;2023-03-30T11:11:04;3.47;;;2.50;;
21754;SDS011;11039;50.028;19.938;2023-03-30T11:16:09;4.70;;;2.28;;
21754;SDS011;11039;50.028;19.938;2023-03-30T11:18:53;4.32;;;2.00;;
21754;SDS011;11039;50.028;19.938;2023-03-30T11:21:29;4.20;;;1.95;;
21754;SDS011;11039;50.028;19.938;2023-03-30T11:23:59;3.22;;;1.70;;
21754;SDS011;11039;50.028;19.938;2023-03-30T11:28:56;3.13;;;1.80;;
21754;SDS011;11039;50.028;19.938;2023-03-30T11:34:15;4.28;;;2.28;;
21754;SDS011;11039;50.028;19.938;2023-03-30T11:36:49;4.30;;;2.45;;
21754;SDS011;11039;50.028;19.938;2023-03-30T11:39:15;2.85;;;1.90;;
21754;SDS011;11039;50.028;19.938;2023-03-30T11:41:51;3.80;;;2.08;;
21754;SDS011;11039;50.028;19.938;2023-03-30T11:44:20;3.03;;;1.73;;
21754;SDS011;11039;50.028;19.938;2023-03-30T11:49:31;3.85;;;2.30;;
21754;SDS011;11039;50.028;19.938;2023-03-30T11:52:11;2.92;;;2.00;;
21754;SDS011;11039;50.028;19.938;2023-03-30T11:59:58;2.72;;;1.88;;
21754;SDS011;11039;50.028;19.938;2023-03-30T12:05:00;3.67;;;2.10;;
21754;SDS011;11039;50.028;19.938;2023-03-30T12:07:37;2.63;;;2.00;;
21754;SDS011;11039;50.028;19.938;2023-03-30T12:10:10;2.47;;;1.75;;
21754;SDS011;11039;50.028;19.938;2023-03-30T12:12:42;4.25;;;2.17;;
21754;SDS011;11039;50.028;19.938;2023-03-30T12:28:09;3.55;;;1.95;;
21754;SDS011;11039;50.028;19.938;2023-03-30T12:33:18;2.67;;;2.00;;
21754;SDS011;11039;50.028;19.938;2023-03-30T12:38:19;3.30;;;2.08;;
21754;SDS011;11039;50.028;19.938;2023-03-30T12:40:51;3.50;;;2.28;;
21754;SDS011;11039;50.028;19.938;2023-03-30T12:43:20;3.30;;;2.08;;
21754;SDS011;11039;50.028;19.938;2023-03-30T12:45:51;3.22;;;2.10;;
21754;SDS011;11039;50.028;19.938;2023-03-30T12:56:04;4.78;;;2.20;;
21754;SDS011;11039;50.028;19.938;2023-03-30T13:01:18;4.30;;;2.25;;
21754;SDS011;11039;50.028;19.938;2023-03-30T13:03:47;5.53;;;2.40;;
21754;SDS011;11039;50.028;19.938;2023-03-30T13:08:52;4.28;;;1.83;;
21754;SDS011;11039;50.028;19.938;2023-03-30T13:11:19;3.78;;;2.17;;
21754;SDS011;11039;50.028;19.938;2023-03-30T13:19:18;5.82;;;2.10;;
21754;SDS011;11039;50.028;19.938;2023-03-30T13:21:48;6.55;;;2.90;;
21754;SDS011;11039;50.028;19.938;2023-03-30T13:24:23;6.38;;;2.47;;
21754;SDS011;11039;50.028;19.938;2023-03-30T13:26:50;6.43;;;2.30;;
21754;SDS011;11039;50.028;19.938;2023-03-30T13:29:18;4.40;;;2.00;;
21754;SDS011;11039;50.028;19.938;2023-03-30T13:31:51;4.68;;;2.15;;
21754;SDS011;11039;50.028;19.938;2023-03-30T13:36:49;5.80;;;2.10;;
21754;SDS011;11039;50.028;19.938;2023-03-30T13:46:49;7.90;;;2.20;;
21754;SDS011;11039;50.028;19.938;2023-03-30T13:51:42;4.18;;;2.33;;
21754;SDS011;11039;50.028;19.938;2023-03-30T13:54:11;5.18;;;2.28;;
21754;SDS011;11039;50.028;19.938;2023-03-30T13:56:39;7.65;;;2.42;;
21754;SDS011;11039;50.028;19.938;2023-03-30T13:59:08;4.70;;;2.25;;
21754;SDS011;11039;50.028;19.938;2023-03-30T14:01:35;6.72;;;2.22;;
21754;SDS011;11039;50.028;19.938;2023-03-30T14:04:02;5.15;;;2.10;;
21754;SDS011;11039;50.028;19.938;2023-03-30T14:06:30;6.13;;;2.55;;
21754;SDS011;11039;50.028;19.938;2023-03-30T14:09:08;7.25;;;2.45;;
21754;SDS011;11039;50.028;19.938;2023-03-30T14:11:44;4.97;;;2.08;;
21754;SDS011;11039;50.028;19.938;2023-03-30T14:14:17;8.02;;;3.10;;
21754;SDS011;11039;50.028;19.938;2023-03-30T14:16:47;8.20;;;2.35;;
21754;SDS011;11039;50.028;19.938;2023-03-30T14:21:43;5.82;;;2.55;;
21754;SDS011;11039;50.028;19.938;2023-03-30T14:24:25;6.80;;;2.85;;
21754;SDS011;11039;50.028;19.938;2023-03-30T14:26:51;6.47;;;2.65;;
21754;SDS011;11039;50.028;19.938;2023-03-30T14:29:18;6.80;;;2.20;;
21754;SDS011;11039;50.028;19.938;2023-03-30T14:31:45;10.85;;;3.03;;
21754;SDS011;11039;50.028;19.938;2023-03-30T14:34:25;7.53;;;2.75;;
21754;SDS011;11039;50.028;19.938;2023-03-30T14:36:52;6.00;;;2.67;;
21754;SDS011;11039;50.028;19.938;2023-03-30T14:39:19;5.95;;;2.75;;
21754;SDS011;11039;50.028;19.938;2023-03-30T14:41:47;8.60;;;2.58;;
21754;SDS011;11039;50.028;19.938;2023-03-30T14:44:13;5.22;;;2.97;;
21754;SDS011;11039;50.028;19.938;2023-03-30T14:46:40;12.65;;;2.88;;
21754;SDS011;11039;50.028;19.938;2023-03-30T14:49:08;9.13;;;3.33;;
21754;SDS011;11039;50.028;19.938;2023-03-30T14:51:42;6.50;;;2.80;;
21754;SDS011;11039;50.028;19.938;2023-03-30T14:54:19;6.75;;;3.65;;
21754;SDS011;11039;50.028;19.938;2023-03-30T14:56:54;15.43;;;4.90;;
21754;SDS011;11039;50.028;19.938;2023-03-30T14:59:24;17.02;;;5.53;;
21754;SDS011;11039;50.028;19.938;2023-03-30T15:01:51;9.98;;;4.65;;
21754;SDS011;11039;50.028;19.938;2023-03-30T15:04:17;11.02;;;4.72;;
21754;SDS011;11039;50.028;19.938;2023-03-30T15:06:45;14.05;;;4.90;;
21754;SDS011;11039;50.028;19.938;2023-03-30T15:09:15;12.52;;;4.47;;
21754;SDS011;11039;50.028;19.938;2023-03-30T15:11:42;11.57;;;4.45;;
21754;SDS011;11039;50.028;19.938;2023-03-30T15:14:12;10.45;;;3.92;;
21754;SDS011;11039;50.028;19.938;2023-03-30T15:16:39;9.20;;;3.95;;
21754;SDS011;11039;50.028;19.938;2023-03-30T15:19:09;7.38;;;3.80;;
21754;SDS011;11039;50.028;19.938;2023-03-30T15:21:36;8.00;;;3.67;;
21754;SDS011;11039;50.028;19.938;2023-03-30T15:24:04;11.68;;;3.83;;
21754;SDS011;11039;50.028;19.938;2023-03-30T15:26:31;9.35;;;3.70;;
21754;SDS011;11039;50.028;19.938;2023-03-30T15:28:57;7.15;;;3.67;;
21754;SDS011;11039;50.028;19.938;2023-03-30T15:31:25;8.77;;;3.72;;
21754;SDS011;11039;50.028;19.938;2023-03-30T15:33:52;8.23;;;3.40;;
21754;SDS011;11039;50.028;19.938;2023-03-30T15:36:19;7.07;;;3.78;;
21754;SDS011;11039;50.028;19.938;2023-03-30T15:38:47;8.27;;;3.95;;
21754;SDS011;11039;50.028;19.938;2023-03-30T15:41:14;6.88;;;3.45;;
21754;SDS011;11039;50.028;19.938;2023-03-30T15:43:54;6.97;;;3.33;;
21754;SDS011;11039;50.028;19.938;2023-03-30T15:46:20;6.13;;;3.10;;
21754;SDS011;11039;50.028;19.938;2023-03-30T15:48:47;6.95;;;3.10;;
21754;SDS011;11039;50.028;19.938;2023-03-30T15:53:41;5.85;;;2.97;;
21754;SDS011;11039;50.028;19.938;2023-03-30T15:56:12;7.40;;;3.03;;
21754;SDS011;11039;50.028;19.938;2023-03-30T15:58:42;7.55;;;3.10;;
21754;SDS011;11039;50.028;19.938;2023-03-30T16:01:10;4.88;;;2.65;;
21754;SDS011;11039;50.028;19.938;2023-03-30T16:03:38;5.28;;;3.05;;
21754;SDS011;11039;50.028;19.938;2023-03-30T16:06:04;6.60;;;2.88;;
21754;SDS011;11039;50.028;19.938;2023-03-30T16:08:31;9.80;;;3.03;;
21754;SDS011;11039;50.028;19.938;2023-03-30T16:10:57;6.78;;;3.45;;
21754;SDS011;11039;50.028;19.938;2023-03-30T16:13:23;8.60;;;3.75;;
21754;SDS011;11039;50.028;19.938;2023-03-30T16:15:49;8.43;;;3.80;;
21754;SDS011;11039;50.028;19.938;2023-03-30T16:18:16;8.60;;;3.88;;
21754;SDS011;11039;50.028;19.938;2023-03-30T16:20:42;9.57;;;3.90;;
21754;SDS011;11039;50.028;19.938;2023-03-30T16:23:08;9.02;;;4.25;;
21754;SDS011;11039;50.028;19.938;2023-03-30T16:25:35;10.82;;;3.92;;
21754;SDS011;11039;50.028;19.938;2023-03-30T16:28:01;8.75;;;3.85;;
21754;SDS011;11039;50.028;19.938;2023-03-30T16:30:33;7.63;;;4.03;;
21754;SDS011;11039;50.028;19.938;2023-03-30T16:33:01;7.90;;;4.00;;
21754;SDS011;11039;50.028;19.938;2023-03-30T16:35:27;9.15;;;4.00;;
21754;SDS011;11039;50.028;19.938;2023-03-30T16:37:53;8.20;;;3.65;;
21754;SDS011;11039;50.028;19.938;2023-03-30T16:40:30;7.65;;;3.63;;
21754;SDS011;11039;50.028;19.938;2023-03-30T16:42:57;10.60;;;4.22;;
21754;SDS011;11039;50.028;19.938;2023-03-30T16:45:23;8.27;;;3.90;;
21754;SDS011;11039;50.028;19.938;2023-03-30T16:47:50;8.38;;;4.00;;
21754;SDS011;11039;50.028;19.938;2023-03-30T16:52:42;8.75;;;4.38;;
21754;SDS011;11039;50.028;19.938;2023-03-30T16:55:08;8.38;;;4.30;;
21754;SDS011;11039;50.028;19.938;2023-03-30T16:57:34;6.75;;;3.97;;
21754;SDS011;11039;50.028;19.938;2023-03-30T17:00:00;8.20;;;3.88;;
21754;SDS011;11039;50.028;19.938;2023-03-30T17:02:27;11.93;;;4.50;;
21754;SDS011;11039;50.028;19.938;2023-03-30T17:04:53;9.10;;;4.15;;
21754;SDS011;11039;50.028;19.938;2023-03-30T17:07:19;7.15;;;4.25;;